Time;durP1;ratioP1;P1;durP2;ratioP2;P2;SDS_P1;SDS_P2;PMS_P1;PMS_P2;Temp;Humidity;BMP_temperature;BMP_pressure;BME280_temperature;BME280_humidity;BME280_pressure;Samples;Min_cycle;Max_cycle;Signal;HPM_P1;HPM_P2
2020/12/07 00:00:55;;;;;;;13.95;9.250001;;;;;;;2.2;96.08691;93245.95;;;;
2020/12/07 00:01:56;;;;;;;13.95;9.250001;;;;;;;2.2;96.08691;93245.95;;;;
2020/12/07 00:02:56;;;;;;;13.95;9.250001;;;;;;;2.2;96.08691;93245.95;;;;
2020/12/07 00:03:57;;;;;;;13.1;8.85;;;;;;;2.1;95.98242;93269.6;;;;
2020/12/07 00:04:57;;;;;;;13.1;8.85;;;;;;;2.1;95.98242;93269.6;;;;
2020/12/07 00:05:58;;;;;;;13.1;8.85;;;;;;;2.1;95.98242;93269.6;;;;
2020/12/07 00:06:59;;;;;;;13.1;8.85;;;;;;;2.1;95.98242;93269.6;;;;
2020/12/07 00:07:59;;;;;;;13.1;8.85;;;;;;;2.1;95.98242;93269.6;;;;
2020/12/07 00:09:01;;;;;;;13.1;8.85;;;;;;;2.1;95.98242;93269.6;;;;
2020/12/07 00:10:02;;;;;;;13.1;8.85;;;;;;;2.1;95.98242;93269.6;;;;
2020/12/07 00:11:04;;;;;;;13.1;8.85;;;;;;;2.1;95.98242;93269.6;;;;
2020/12/07 00:12:08;;;;;;;13.1;8.85;;;;;;;2.1;95.98242;93269.6;;;;
2020/12/07 00:13:09;;;;;;;13.1;8.85;;;;;;;2.1;95.98242;93269.6;;;;
2020/12/07 00:14:09;;;;;;;13.1;8.85;;;;;;;2.1;95.98242;93269.6;;;;
2020/12/07 00:15:10;;;;;;;12.95;8.200001;;;;;;;2.05;96.44922;93253.13;;;;
2020/12/07 00:16:11;;;;;;;12.95;8.200001;;;;;;;2.05;96.44922;93253.13;;;;
2020/12/07 00:17:12;;;;;;;12.95;8.200001;;;;;;;2.05;96.44922;93253.13;;;;
2020/12/07 00:18:12;;;;;;;12.95;8.200001;;;;;;;2.05;96.44922;93253.13;;;;
2020/12/07 00:19:13;;;;;;;12.95;8.200001;;;;;;;2.05;96.44922;93253.13;;;;
2020/12/07 00:20:14;;;;;;;12.95;8.200001;;;;;;;2.05;96.44922;93253.13;;;;
2020/12/07 00:21:14;;;;;;;12.95;8.200001;;;;;;;2.05;96.44922;93253.13;;;;
2020/12/07 00:22:15;;;;;;;12.95;8.200001;;;;;;;2.05;96.44922;93253.13;;;;
2020/12/07 00:23:20;;;;;;;12.95;8.200001;;;;;;;2.05;96.44922;93253.13;;;;
2020/12/07 00:24:20;;;;;;;12.95;8.200001;;;;;;;2.05;96.44922;93253.13;;;;
2020/12/07 00:25:21;;;;;;;14.6;8.950001;;;;;;;2.08;96.46777;93275.67;;;;
2020/12/07 00:26:22;;;;;;;14.6;8.950001;;;;;;;2.08;96.46777;93275.67;;;;
2020/12/07 00:27:22;;;;;;;14.6;8.950001;;;;;;;2.08;96.46777;93275.67;;;;
2020/12/07 00:28:25;;;;;;;14.6;8.950001;;;;;;;2.08;96.46777;93275.67;;;;
2020/12/07 00:29:25;;;;;;;14.6;8.950001;;;;;;;2.08;96.46777;93275.67;;;;
2020/12/07 00:30:26;;;;;;;14.6;8.950001;;;;;;;2.08;96.46777;93275.67;;;;
2020/12/07 00:31:26;;;;;;;14.6;8.950001;;;;;;;2.08;96.46777;93275.67;;;;
2020/12/07 00:32:27;;;;;;;14.6;8.950001;;;;;;;2.08;96.46777;93275.67;;;;
2020/12/07 00:33:27;;;;;;;14.6;8.950001;;;;;;;2.08;96.46777;93275.67;;;;
2020/12/07 00:34:28;;;;;;;14.6;8.950001;;;;;;;2.08;96.46777;93275.67;;;;
2020/12/07 00:35:28;;;;;;;14.6;8.950001;;;;;;;2.08;96.46777;93275.67;;;;
2020/12/07 00:36:29;;;;;;;12.55;8.8;;;;;;;2.06;96.32617;93287.99;;;;
2020/12/07 00:37:30;;;;;;;12.55;8.8;;;;;;;2.06;96.32617;93287.99;;;;
2020/12/07 00:38:30;;;;;;;12.55;8.8;;;;;;;2.06;96.32617;93287.99;;;;
2020/12/07 00:39:31;;;;;;;12.55;8.8;;;;;;;2.06;96.32617;93287.99;;;;
2020/12/07 00:40:31;;;;;;;12.55;8.8;;;;;;;2.06;96.32617;93287.99;;;;
2020/12/07 00:41:32;;;;;;;12.55;8.8;;;;;;;2.06;96.32617;93287.99;;;;
2020/12/07 00:42:32;;;;;;;12.55;8.8;;;;;;;2.06;96.32617;93287.99;;;;
2020/12/07 00:43:33;;;;;;;12.55;8.8;;;;;;;2.06;96.32617;93287.99;;;;
2020/12/07 00:44:33;;;;;;;12.55;8.8;;;;;;;2.06;96.32617;93287.99;;;;
2020/12/07 00:45:34;;;;;;;12.55;8.8;;;;;;;2.06;96.32617;93287.99;;;;
2020/12/07 00:46:35;;;;;;;14.1;8.8;;;;;;;2.06;96.57617;93292.91;;;;
2020/12/07 00:47:36;;;;;;;14.1;8.8;;;;;;;2.06;96.57617;93292.91;;;;
2020/12/07 00:48:36;;;;;;;14.1;8.8;;;;;;;2.06;96.57617;93292.91;;;;
2020/12/07 00:49:36;;;;;;;14.1;8.8;;;;;;;2.06;96.57617;93292.91;;;;
2020/12/07 00:50:38;;;;;;;14.1;8.8;;;;;;;2.06;96.57617;93292.91;;;;
2020/12/07 00:51:39;;;;;;;14.1;8.8;;;;;;;2.06;96.57617;93292.91;;;;
2020/12/07 00:52:39;;;;;;;14.1;8.8;;;;;;;2.06;96.57617;93292.91;;;;
2020/12/07 00:53:40;;;;;;;14.1;8.8;;;;;;;2.06;96.57617;93292.91;;;;
2020/12/07 00:54:41;;;;;;;14.1;8.8;;;;;;;2.06;96.57617;93292.91;;;;
2020/12/07 00:55:41;;;;;;;14.1;8.8;;;;;;;2.06;96.57617;93292.91;;;;
2020/12/07 00:56:42;;;;;;;14.1;8.8;;;;;;;2.06;96.57617;93292.91;;;;
2020/12/07 00:57:42;;;;;;;13;8.5;;;;;;;2.11;96.65137;93328.02;;;;
2020/12/07 01:15:36;;;;;;;11.6;8.3;;;;;;;2.14;96.74121;93313.73;;;;
2020/12/07 01:16:37;;;;;;;11.6;8.3;;;;;;;2.14;96.74121;93313.73;;;;
2020/12/07 01:17:37;;;;;;;11.6;8.3;;;;;;;2.14;96.74121;93313.73;;;;
2020/12/07 01:18:38;;;;;;;11.6;8.3;;;;;;;2.14;96.74121;93313.73;;;;
2020/12/07 01:19:38;;;;;;;10.6;7.749999;;;;;;;2.2;96.98535;93309.74;;;;
2020/12/07 01:20:39;;;;;;;10.6;7.749999;;;;;;;2.2;96.98535;93309.74;;;;
2020/12/07 01:21:39;;;;;;;10.6;7.749999;;;;;;;2.2;96.98535;93309.74;;;;
2020/12/07 01:22:40;;;;;;;10.6;7.749999;;;;;;;2.2;96.98535;93309.74;;;;
2020/12/07 01:23:40;;;;;;;10.6;7.749999;;;;;;;2.2;96.98535;93309.74;;;;
2020/12/07 01:24:42;;;;;;;10.6;7.749999;;;;;;;2.2;96.98535;93309.74;;;;
2020/12/07 01:25:42;;;;;;;10.6;7.749999;;;;;;;2.2;96.98535;93309.74;;;;
2020/12/07 01:26:43;;;;;;;10.6;7.749999;;;;;;;2.2;96.98535;93309.74;;;;
2020/12/07 01:27:44;;;;;;;10.6;7.749999;;;;;;;2.2;96.98535;93309.74;;;;
2020/12/07 01:28:44;;;;;;;10.6;7.749999;;;;;;;2.2;96.98535;93309.74;;;;
2020/12/07 01:29:45;;;;;;;10.4;7.799999;;;;;;;2.19;97.18945;93343.25;;;;
2020/12/07 01:30:45;;;;;;;10.4;7.799999;;;;;;;2.19;97.18945;93343.25;;;;
2020/12/07 01:31:46;;;;;;;10.4;7.799999;;;;;;;2.19;97.18945;93343.25;;;;
2020/12/07 01:32:47;;;;;;;10.4;7.799999;;;;;;;2.19;97.18945;93343.25;;;;
2020/12/07 01:33:47;;;;;;;10.4;7.799999;;;;;;;2.19;97.18945;93343.25;;;;
2020/12/07 01:34:49;;;;;;;10.4;7.799999;;;;;;;2.19;97.18945;93343.25;;;;
2020/12/07 01:35:49;;;;;;;10.4;7.799999;;;;;;;2.19;97.18945;93343.25;;;;
2020/12/07 01:36:50;;;;;;;10.4;7.799999;;;;;;;2.19;97.18945;93343.25;;;;
2020/12/07 01:37:50;;;;;;;10.4;7.799999;;;;;;;2.19;97.18945;93343.25;;;;
2020/12/07 01:38:51;;;;;;;10.4;7.799999;;;;;;;2.19;97.18945;93343.25;;;;
2020/12/07 01:39:52;;;;;;;10.4;7.799999;;;;;;;2.19;97.18945;93343.25;;;;
2020/12/07 01:40:52;;;;;;;10.3;7.599999;;;;;;;2.17;97.45605;93345.73;;;;
2020/12/07 01:41:53;;;;;;;10.3;7.599999;;;;;;;2.17;97.45605;93345.73;;;;
2020/12/07 01:42:53;;;;;;;10.3;7.599999;;;;;;;2.17;97.45605;93345.73;;;;
2020/12/07 01:43:54;;;;;;;10.3;7.599999;;;;;;;2.17;97.45605;93345.73;;;;
2020/12/07 01:44:54;;;;;;;10.3;7.599999;;;;;;;2.17;97.45605;93345.73;;;;
2020/12/07 01:45:55;;;;;;;10.3;7.599999;;;;;;;2.17;97.45605;93345.73;;;;
2020/12/07 01:46:56;;;;;;;10.3;7.599999;;;;;;;2.17;97.45605;93345.73;;;;
2020/12/07 01:47:57;;;;;;;10.3;7.599999;;;;;;;2.17;97.45605;93345.73;;;;
2020/12/07 01:48:58;;;;;;;10.3;7.599999;;;;;;;2.17;97.45605;93345.73;;;;
2020/12/07 01:49:59;;;;;;;10.3;7.599999;;;;;;;2.17;97.45605;93345.73;;;;
2020/12/07 01:51:01;;;;;;;10.25;7.849999;;;;;;;2.24;97.50391;93340.17;;;;
2020/12/07 01:52:03;;;;;;;10.25;7.849999;;;;;;;2.24;97.50391;93340.17;;;;
2020/12/07 01:53:04;;;;;;;10.25;7.849999;;;;;;;2.24;97.50391;93340.17;;;;
2020/12/07 01:54:04;;;;;;;10.25;7.849999;;;;;;;2.24;97.50391;93340.17;;;;
2020/12/07 01:55:05;;;;;;;10.25;7.849999;;;;;;;2.24;97.50391;93340.17;;;;
2020/12/07 01:56:06;;;;;;;10.25;7.849999;;;;;;;2.24;97.50391;93340.17;;;;
2020/12/07 01:57:09;;;;;;;10.25;7.849999;;;;;;;2.24;97.50391;93340.17;;;;
2020/12/07 01:58:09;;;;;;;10.25;7.849999;;;;;;;2.24;97.50391;93340.17;;;;
2020/12/07 01:59:10;;;;;;;10.25;7.849999;;;;;;;2.24;97.50391;93340.17;;;;
2020/12/07 02:00:10;;;;;;;10.25;7.849999;;;;;;;2.24;97.50391;93340.17;;;;
2020/12/07 02:01:11;;;;;;;10.25;7.849999;;;;;;;2.24;97.50391;93340.17;;;;
2020/12/07 02:02:11;;;;;;;9.950001;7.600001;;;;;;;2.22;97.16602;93351.58;;;;
2020/12/07 02:03:12;;;;;;;9.950001;7.600001;;;;;;;2.22;97.16602;93351.58;;;;
2020/12/07 02:04:13;;;;;;;9.950001;7.600001;;;;;;;2.22;97.16602;93351.58;;;;
2020/12/07 02:05:14;;;;;;;9.950001;7.600001;;;;;;;2.22;97.16602;93351.58;;;;
2020/12/07 02:06:16;;;;;;;9.950001;7.600001;;;;;;;2.22;97.16602;93351.58;;;;
2020/12/07 02:07:16;;;;;;;9.950001;7.600001;;;;;;;2.22;97.16602;93351.58;;;;
2020/12/07 02:08:18;;;;;;;9.950001;7.600001;;;;;;;2.22;97.16602;93351.58;;;;
2020/12/07 02:09:19;;;;;;;9.950001;7.600001;;;;;;;2.22;97.16602;93351.58;;;;
2020/12/07 02:10:25;;;;;;;9.950001;7.600001;;;;;;;2.22;97.16602;93351.58;;;;
2020/12/07 02:11:25;;;;;;;9.950001;7.600001;;;;;;;2.22;97.16602;93351.58;;;;
2020/12/07 02:12:26;;;;;;;9.5;7.399999;;;;;;;2.19;97.52246;93371.61;;;;
2020/12/07 02:13:26;;;;;;;9.5;7.399999;;;;;;;2.19;97.52246;93371.61;;;;
2020/12/07 02:14:27;;;;;;;9.5;7.399999;;;;;;;2.19;97.52246;93371.61;;;;
2020/12/07 02:15:27;;;;;;;9.5;7.399999;;;;;;;2.19;97.52246;93371.61;;;;
2020/12/07 02:16:28;;;;;;;9.5;7.399999;;;;;;;2.19;97.52246;93371.61;;;;
2020/12/07 02:17:28;;;;;;;9.5;7.399999;;;;;;;2.19;97.52246;93371.61;;;;
2020/12/07 02:18:28;;;;;;;9.5;7.399999;;;;;;;2.19;97.52246;93371.61;;;;
2020/12/07 02:19:29;;;;;;;9.5;7.399999;;;;;;;2.19;97.52246;93371.61;;;;
2020/12/07 02:20:29;;;;;;;9.5;7.399999;;;;;;;2.19;97.52246;93371.61;;;;
2020/12/07 02:21:30;;;;;;;9.5;7.399999;;;;;;;2.19;97.52246;93371.61;;;;
2020/12/07 02:22:30;;;;;;;9.5;7.399999;;;;;;;2.19;97.52246;93371.61;;;;
2020/12/07 02:23:31;;;;;;;9.5;7.449999;;;;;;;2.23;97.64551;93416.28;;;;
2020/12/07 02:24:31;;;;;;;9.5;7.449999;;;;;;;2.23;97.64551;93416.28;;;;
2020/12/07 02:25:32;;;;;;;9.5;7.449999;;;;;;;2.23;97.64551;93416.28;;;;
2020/12/07 02:26:32;;;;;;;9.5;7.449999;;;;;;;2.23;97.64551;93416.28;;;;
2020/12/07 02:27:33;;;;;;;9.5;7.449999;;;;;;;2.23;97.64551;93416.28;;;;
2020/12/07 02:28:33;;;;;;;9.5;7.449999;;;;;;;2.23;97.64551;93416.28;;;;
2020/12/07 02:29:34;;;;;;;9.5;7.449999;;;;;;;2.23;97.64551;93416.28;;;;
2020/12/07 02:30:35;;;;;;;9.5;7.449999;;;;;;;2.23;97.64551;93416.28;;;;
2020/12/07 02:31:36;;;;;;;9.5;7.449999;;;;;;;2.23;97.64551;93416.28;;;;
2020/12/07 02:32:37;;;;;;;9.5;7.449999;;;;;;;2.23;97.64551;93416.28;;;;
2020/12/07 02:33:38;;;;;;;9.150002;6.799999;;;;;;;2.25;97.55664;93431.52;;;;
2020/12/07 02:34:38;;;;;;;9.150002;6.799999;;;;;;;2.25;97.55664;93431.52;;;;
2020/12/07 02:35:40;;;;;;;9.150002;6.799999;;;;;;;2.25;97.55664;93431.52;;;;
2020/12/07 02:36:40;;;;;;;9.150002;6.799999;;;;;;;2.25;97.55664;93431.52;;;;
2020/12/07 02:37:41;;;;;;;9.150002;6.799999;;;;;;;2.25;97.55664;93431.52;;;;
2020/12/07 02:38:43;;;;;;;9.150002;6.799999;;;;;;;2.25;97.55664;93431.52;;;;
2020/12/07 02:39:43;;;;;;;9.150002;6.799999;;;;;;;2.25;97.55664;93431.52;;;;
2020/12/07 02:40:44;;;;;;;9.150002;6.799999;;;;;;;2.25;97.55664;93431.52;;;;
2020/12/07 02:41:44;;;;;;;9.150002;6.799999;;;;;;;2.25;97.55664;93431.52;;;;
2020/12/07 02:42:45;;;;;;;9.150002;6.799999;;;;;;;2.25;97.55664;93431.52;;;;
2020/12/07 02:43:45;;;;;;;9.150002;6.799999;;;;;;;2.25;97.55664;93431.52;;;;
2020/12/07 02:44:46;;;;;;;8.899999;6.75;;;;;;;2.22;97.53125;93410.14;;;;
2020/12/07 02:45:46;;;;;;;8.899999;6.75;;;;;;;2.22;97.53125;93410.14;;;;
2020/12/07 02:46:47;;;;;;;8.899999;6.75;;;;;;;2.22;97.53125;93410.14;;;;
2020/12/07 02:47:47;;;;;;;8.899999;6.75;;;;;;;2.22;97.53125;93410.14;;;;
2020/12/07 02:48:48;;;;;;;8.899999;6.75;;;;;;;2.22;97.53125;93410.14;;;;
2020/12/07 02:49:48;;;;;;;8.899999;6.75;;;;;;;2.22;97.53125;93410.14;;;;
2020/12/07 02:50:49;;;;;;;8.899999;6.75;;;;;;;2.22;97.53125;93410.14;;;;
2020/12/07 02:51:49;;;;;;;8.899999;6.75;;;;;;;2.22;97.53125;93410.14;;;;
2020/12/07 02:52:50;;;;;;;8.899999;6.75;;;;;;;2.22;97.53125;93410.14;;;;
2020/12/07 02:53:51;;;;;;;8.899999;6.75;;;;;;;2.22;97.53125;93410.14;;;;
2020/12/07 02:54:51;;;;;;;8.899999;6.75;;;;;;;2.22;97.53125;93410.14;;;;
2020/12/07 02:55:52;;;;;;;8.6;6.500001;;;;;;;2.18;97.50977;93454.74;;;;
2020/12/07 02:56:53;;;;;;;8.6;6.500001;;;;;;;2.18;97.50977;93454.74;;;;
2020/12/07 02:57:53;;;;;;;8.6;6.500001;;;;;;;2.18;97.50977;93454.74;;;;
2020/12/07 02:58:54;;;;;;;8.6;6.500001;;;;;;;2.18;97.50977;93454.74;;;;
2020/12/07 02:59:55;;;;;;;8.6;6.500001;;;;;;;2.18;97.50977;93454.74;;;;
2020/12/07 03:00:55;;;;;;;8.6;6.500001;;;;;;;2.18;97.50977;93454.74;;;;
2020/12/07 03:01:56;;;;;;;8.6;6.500001;;;;;;;2.18;97.50977;93454.74;;;;
2020/12/07 03:02:56;;;;;;;8.6;6.500001;;;;;;;2.18;97.50977;93454.74;;;;
2020/12/07 03:03:57;;;;;;;8.6;6.500001;;;;;;;2.18;97.50977;93454.74;;;;
2020/12/07 03:04:57;;;;;;;8.6;6.500001;;;;;;;2.18;97.50977;93454.74;;;;
2020/12/07 03:05:57;;;;;;;7.25;6.000001;;;;;;;2.08;97.16406;93453.59;;;;
2020/12/07 03:06:58;;;;;;;7.25;6.000001;;;;;;;2.08;97.16406;93453.59;;;;
2020/12/07 03:07:59;;;;;;;7.25;6.000001;;;;;;;2.08;97.16406;93453.59;;;;
2020/12/07 03:08:59;;;;;;;7.25;6.000001;;;;;;;2.08;97.16406;93453.59;;;;
2020/12/07 03:10:00;;;;;;;7.25;6.000001;;;;;;;2.08;97.16406;93453.59;;;;
2020/12/07 03:11:00;;;;;;;7.25;6.000001;;;;;;;2.08;97.16406;93453.59;;;;
2020/12/07 03:12:01;;;;;;;7.25;6.000001;;;;;;;2.08;97.16406;93453.59;;;;
2020/12/07 03:13:02;;;;;;;7.25;6.000001;;;;;;;2.08;97.16406;93453.59;;;;
2020/12/07 03:14:02;;;;;;;7.25;6.000001;;;;;;;2.08;97.16406;93453.59;;;;
2020/12/07 03:15:03;;;;;;;7.25;6.000001;;;;;;;2.08;97.16406;93453.59;;;;
2020/12/07 03:16:03;;;;;;;7.25;6.000001;;;;;;;2.08;97.16406;93453.59;;;;
2020/12/07 03:17:04;;;;;;;7.6;6.200001;;;;;;;1.87;97.09375;93456.38;;;;
2020/12/07 03:18:04;;;;;;;7.6;6.200001;;;;;;;1.87;97.09375;93456.38;;;;
2020/12/07 03:19:05;;;;;;;7.6;6.200001;;;;;;;1.87;97.09375;93456.38;;;;
2020/12/07 03:20:05;;;;;;;7.6;6.200001;;;;;;;1.87;97.09375;93456.38;;;;
2020/12/07 03:21:06;;;;;;;7.6;6.200001;;;;;;;1.87;97.09375;93456.38;;;;
2020/12/07 03:22:07;;;;;;;7.6;6.200001;;;;;;;1.87;97.09375;93456.38;;;;
2020/12/07 03:23:07;;;;;;;7.6;6.200001;;;;;;;1.87;97.09375;93456.38;;;;
2020/12/07 03:24:08;;;;;;;7.6;6.200001;;;;;;;1.87;97.09375;93456.38;;;;
2020/12/07 03:25:08;;;;;;;7.6;6.200001;;;;;;;1.87;97.09375;93456.38;;;;
2020/12/07 03:26:09;;;;;;;7.6;6.200001;;;;;;;1.87;97.09375;93456.38;;;;
2020/12/07 03:27:09;;;;;;;8.75;6.45;;;;;;;1.71;97.44531;93464.87;;;;
2020/12/07 03:28:10;;;;;;;8.75;6.45;;;;;;;1.71;97.44531;93464.87;;;;
2020/12/07 03:29:11;;;;;;;8.75;6.45;;;;;;;1.71;97.44531;93464.87;;;;
2020/12/07 03:30:11;;;;;;;8.75;6.45;;;;;;;1.71;97.44531;93464.87;;;;
2020/12/07 03:31:12;;;;;;;8.75;6.45;;;;;;;1.71;97.44531;93464.87;;;;
2020/12/07 03:32:12;;;;;;;8.75;6.45;;;;;;;1.71;97.44531;93464.87;;;;
2020/12/07 03:33:13;;;;;;;8.75;6.45;;;;;;;1.71;97.44531;93464.87;;;;
2020/12/07 03:34:13;;;;;;;8.75;6.45;;;;;;;1.71;97.44531;93464.87;;;;
2020/12/07 03:35:14;;;;;;;8.75;6.45;;;;;;;1.71;97.44531;93464.87;;;;
2020/12/07 03:36:15;;;;;;;8.75;6.45;;;;;;;1.71;97.44531;93464.87;;;;
2020/12/07 03:37:15;;;;;;;8.75;6.45;;;;;;;1.71;97.44531;93464.87;;;;
2020/12/07 03:38:16;;;;;;;8.95;6.35;;;;;;;1.55;97.70996;93484.64;;;;
2020/12/07 03:39:16;;;;;;;8.95;6.35;;;;;;;1.55;97.70996;93484.64;;;;
2020/12/07 03:40:17;;;;;;;8.95;6.35;;;;;;;1.55;97.70996;93484.64;;;;
2020/12/07 03:41:17;;;;;;;8.95;6.35;;;;;;;1.55;97.70996;93484.64;;;;
2020/12/07 03:42:18;;;;;;;8.95;6.35;;;;;;;1.55;97.70996;93484.64;;;;
2020/12/07 03:43:19;;;;;;;8.95;6.35;;;;;;;1.55;97.70996;93484.64;;;;
2020/12/07 03:44:19;;;;;;;8.95;6.35;;;;;;;1.55;97.70996;93484.64;;;;
2020/12/07 03:45:20;;;;;;;8.95;6.35;;;;;;;1.55;97.70996;93484.64;;;;
2020/12/07 03:46:20;;;;;;;8.95;6.35;;;;;;;1.55;97.70996;93484.64;;;;
2020/12/07 03:47:21;;;;;;;8.95;6.35;;;;;;;1.55;97.70996;93484.64;;;;
2020/12/07 03:48:21;;;;;;;8.4;6.299999;;;;;;;1.41;97.84668;93503.05;;;;
2020/12/07 03:49:22;;;;;;;8.4;6.299999;;;;;;;1.41;97.84668;93503.05;;;;
2020/12/07 03:50:22;;;;;;;8.4;6.299999;;;;;;;1.41;97.84668;93503.05;;;;
2020/12/07 03:51:23;;;;;;;8.4;6.299999;;;;;;;1.41;97.84668;93503.05;;;;
2020/12/07 03:52:24;;;;;;;8.4;6.299999;;;;;;;1.41;97.84668;93503.05;;;;
2020/12/07 03:53:24;;;;;;;8.4;6.299999;;;;;;;1.41;97.84668;93503.05;;;;
2020/12/07 03:54:25;;;;;;;8.4;6.299999;;;;;;;1.41;97.84668;93503.05;;;;
2020/12/07 03:55:25;;;;;;;8.4;6.299999;;;;;;;1.41;97.84668;93503.05;;;;
2020/12/07 03:56:26;;;;;;;8.4;6.299999;;;;;;;1.41;97.84668;93503.05;;;;
2020/12/07 03:57:26;;;;;;;8.4;6.299999;;;;;;;1.41;97.84668;93503.05;;;;
2020/12/07 03:58:27;;;;;;;8.4;6.299999;;;;;;;1.41;97.84668;93503.05;;;;
2020/12/07 03:59:27;;;;;;;8.55;6.4;;;;;;;1.33;98.0752;93526.06;;;;
2020/12/07 04:00:28;;;;;;;8.55;6.4;;;;;;;1.33;98.0752;93526.06;;;;
2020/12/07 04:01:28;;;;;;;8.55;6.4;;;;;;;1.33;98.0752;93526.06;;;;
2020/12/07 04:02:29;;;;;;;8.55;6.4;;;;;;;1.33;98.0752;93526.06;;;;
2020/12/07 04:03:30;;;;;;;8.55;6.4;;;;;;;1.33;98.0752;93526.06;;;;
2020/12/07 04:04:39;;;;;;;8.55;6.4;;;;;;;1.33;98.0752;93526.06;;;;
2020/12/07 04:05:43;;;;;;;8.55;6.4;;;;;;;1.33;98.0752;93526.06;;;;
2020/12/07 04:06:45;;;;;;;8.55;6.4;;;;;;;1.33;98.0752;93526.06;;;;
2020/12/07 04:07:45;;;;;;;8.55;6.4;;;;;;;1.33;98.0752;93526.06;;;;
2020/12/07 04:08:46;;;;;;;8.55;6.4;;;;;;;1.33;98.0752;93526.06;;;;
2020/12/07 04:09:46;;;;;;;7.050001;5.65;;;;;;;1.23;98.25098;93525.75;;;;
2020/12/07 04:10:47;;;;;;;7.050001;5.65;;;;;;;1.23;98.25098;93525.75;;;;
2020/12/07 04:11:47;;;;;;;7.050001;5.65;;;;;;;1.23;98.25098;93525.75;;;;
2020/12/07 04:12:48;;;;;;;7.050001;5.65;;;;;;;1.23;98.25098;93525.75;;;;
2020/12/07 04:13:49;;;;;;;7.050001;5.65;;;;;;;1.23;98.25098;93525.75;;;;
2020/12/07 04:14:49;;;;;;;7.050001;5.65;;;;;;;1.23;98.25098;93525.75;;;;
2020/12/07 04:15:50;;;;;;;7.050001;5.65;;;;;;;1.23;98.25098;93525.75;;;;
2020/12/07 04:16:50;;;;;;;7.050001;5.65;;;;;;;1.23;98.25098;93525.75;;;;
2020/12/07 04:17:51;;;;;;;7.050001;5.65;;;;;;;1.23;98.25098;93525.75;;;;
2020/12/07 04:18:51;;;;;;;7.050001;5.65;;;;;;;1.23;98.25098;93525.75;;;;
2020/12/07 04:19:52;;;;;;;7.050001;5.65;;;;;;;1.23;98.25098;93525.75;;;;
2020/12/07 04:20:52;;;;;;;6.3;5.149999;;;;;;;0.97;98.55566;93500.69;;;;
2020/12/07 04:21:53;;;;;;;6.3;5.149999;;;;;;;0.97;98.55566;93500.69;;;;
2020/12/07 04:22:53;;;;;;;6.3;5.149999;;;;;;;0.97;98.55566;93500.69;;;;
2020/12/07 04:23:54;;;;;;;6.3;5.149999;;;;;;;0.97;98.55566;93500.69;;;;
2020/12/07 04:24:54;;;;;;;6.3;5.149999;;;;;;;0.97;98.55566;93500.69;;;;
2020/12/07 04:25:55;;;;;;;6.3;5.149999;;;;;;;0.97;98.55566;93500.69;;;;
2020/12/07 04:26:55;;;;;;;6.3;5.149999;;;;;;;0.97;98.55566;93500.69;;;;
2020/12/07 04:27:56;;;;;;;6.3;5.149999;;;;;;;0.97;98.55566;93500.69;;;;
2020/12/07 04:28:58;;;;;;;6.3;5.149999;;;;;;;0.97;98.55566;93500.69;;;;
2020/12/07 04:29:59;;;;;;;6.3;5.149999;;;;;;;0.97;98.55566;93500.69;;;;
2020/12/07 04:30:59;;;;;;;6.849999;5.15;;;;;;;0.87;99.29004;93488.45;;;;
2020/12/07 04:32:00;;;;;;;6.849999;5.15;;;;;;;0.87;99.29004;93488.45;;;;
2020/12/07 04:33:00;;;;;;;6.849999;5.15;;;;;;;0.87;99.29004;93488.45;;;;
2020/12/07 04:34:01;;;;;;;6.849999;5.15;;;;;;;0.87;99.29004;93488.45;;;;
2020/12/07 04:35:01;;;;;;;6.849999;5.15;;;;;;;0.87;99.29004;93488.45;;;;
2020/12/07 04:36:04;;;;;;;6.849999;5.15;;;;;;;0.87;99.29004;93488.45;;;;
2020/12/07 04:37:04;;;;;;;6.849999;5.15;;;;;;;0.87;99.29004;93488.45;;;;
2020/12/07 04:38:05;;;;;;;6.849999;5.15;;;;;;;0.87;99.29004;93488.45;;;;
2020/12/07 04:39:05;;;;;;;6.849999;5.15;;;;;;;0.87;99.29004;93488.45;;;;
2020/12/07 04:40:06;;;;;;;6.849999;5.15;;;;;;;0.87;99.29004;93488.45;;;;
2020/12/07 04:41:08;;;;;;;6.849999;5.15;;;;;;;0.87;99.29004;93488.45;;;;
2020/12/07 04:42:09;;;;;;;5.850001;4.7;;;;;;;0.95;99.13281;93509.01;;;;
2020/12/07 04:43:10;;;;;;;5.850001;4.7;;;;;;;0.95;99.13281;93509.01;;;;
2020/12/07 04:44:11;;;;;;;5.850001;4.7;;;;;;;0.95;99.13281;93509.01;;;;
2020/12/07 04:45:12;;;;;;;5.850001;4.7;;;;;;;0.95;99.13281;93509.01;;;;
2020/12/07 04:46:13;;;;;;;5.850001;4.7;;;;;;;0.95;99.13281;93509.01;;;;
2020/12/07 04:47:13;;;;;;;5.850001;4.7;;;;;;;0.95;99.13281;93509.01;;;;
2020/12/07 04:48:17;;;;;;;5.850001;4.7;;;;;;;0.95;99.13281;93509.01;;;;
2020/12/07 04:49:20;;;;;;;5.850001;4.7;;;;;;;0.95;99.13281;93509.01;;;;
2020/12/07 04:50:21;;;;;;;5.850001;4.7;;;;;;;0.95;99.13281;93509.01;;;;
2020/12/07 04:51:21;;;;;;;5.850001;4.7;;;;;;;0.95;99.13281;93509.01;;;;
2020/12/07 04:52:22;;;;;;;5.5;4.349999;;;;;;;0.72;98.87305;93512.3;;;;
2020/12/07 04:53:24;;;;;;;5.5;4.349999;;;;;;;0.72;98.87305;93512.3;;;;
2020/12/07 04:54:26;;;;;;;5.5;4.349999;;;;;;;0.72;98.87305;93512.3;;;;
2020/12/07 04:55:27;;;;;;;5.5;4.349999;;;;;;;0.72;98.87305;93512.3;;;;
2020/12/07 04:56:28;;;;;;;5.5;4.349999;;;;;;;0.72;98.87305;93512.3;;;;
2020/12/07 04:57:32;;;;;;;5.5;4.349999;;;;;;;0.72;98.87305;93512.3;;;;
2020/12/07 04:58:33;;;;;;;5.5;4.349999;;;;;;;0.72;98.87305;93512.3;;;;
2020/12/07 04:59:34;;;;;;;5.5;4.349999;;;;;;;0.72;98.87305;93512.3;;;;
2020/12/07 05:00:37;;;;;;;5.5;4.349999;;;;;;;0.72;98.87305;93512.3;;;;
2020/12/07 05:01:37;;;;;;;5.5;4.349999;;;;;;;0.72;98.87305;93512.3;;;;
2020/12/07 05:02:38;;;;;;;5.5;4.349999;;;;;;;0.72;98.87305;93512.3;;;;
2020/12/07 05:03:39;;;;;;;6.45;4.85;;;;;;;0.43;98.93848;93536.08;;;;
2020/12/07 05:04:39;;;;;;;6.45;4.85;;;;;;;0.43;98.93848;93536.08;;;;
2020/12/07 05:05:40;;;;;;;6.45;4.85;;;;;;;0.43;98.93848;93536.08;;;;
2020/12/07 05:06:40;;;;;;;6.45;4.85;;;;;;;0.43;98.93848;93536.08;;;;
2020/12/07 05:07:41;;;;;;;6.45;4.85;;;;;;;0.43;98.93848;93536.08;;;;
2020/12/07 05:08:47;;;;;;;6.45;4.85;;;;;;;0.43;98.93848;93536.08;;;;
2020/12/07 05:09:48;;;;;;;6.45;4.85;;;;;;;0.43;98.93848;93536.08;;;;
2020/12/07 05:10:49;;;;;;;6.45;4.85;;;;;;;0.43;98.93848;93536.08;;;;
2020/12/07 05:11:50;;;;;;;6.45;4.85;;;;;;;0.43;98.93848;93536.08;;;;
2020/12/07 05:12:56;;;;;;;6.45;4.85;;;;;;;0.43;98.93848;93536.08;;;;
2020/12/07 05:14:00;;;;;;;9;5.95;;;;;;;0.24;99.59961;93563.98;;;;
2020/12/07 05:15:01;;;;;;;9;5.95;;;;;;;0.24;99.59961;93563.98;;;;
2020/12/07 05:16:01;;;;;;;9;5.95;;;;;;;0.24;99.59961;93563.98;;;;
2020/12/07 05:17:02;;;;;;;9;5.95;;;;;;;0.24;99.59961;93563.98;;;;
2020/12/07 05:18:03;;;;;;;9;5.95;;;;;;;0.24;99.59961;93563.98;;;;
2020/12/07 05:19:03;;;;;;;9;5.95;;;;;;;0.24;99.59961;93563.98;;;;
2020/12/07 05:20:08;;;;;;;9;5.95;;;;;;;0.24;99.59961;93563.98;;;;
2020/12/07 05:21:09;;;;;;;9;5.95;;;;;;;0.24;99.59961;93563.98;;;;
2020/12/07 05:22:09;;;;;;;9;5.95;;;;;;;0.24;99.59961;93563.98;;;;
2020/12/07 05:23:14;;;;;;;9;5.95;;;;;;;0.24;99.59961;93563.98;;;;
2020/12/07 05:24:15;;;;;;;9;5.95;;;;;;;0.24;99.59961;93563.98;;;;
2020/12/07 05:25:16;;;;;;;9.65;6.5;;;;;;;0.51;99.74609;93574.28;;;;
2020/12/07 05:26:17;;;;;;;9.65;6.5;;;;;;;0.51;99.74609;93574.28;;;;
2020/12/07 05:27:19;;;;;;;9.65;6.5;;;;;;;0.51;99.74609;93574.28;;;;
2020/12/07 05:28:28;;;;;;;9.65;6.5;;;;;;;0.51;99.74609;93574.28;;;;
2020/12/07 05:29:41;;;;;;;9.65;6.5;;;;;;;0.51;99.74609;93574.28;;;;
2020/12/07 05:30:45;;;;;;;9.65;6.5;;;;;;;0.51;99.74609;93574.28;;;;
2020/12/07 05:31:48;;;;;;;9.65;6.5;;;;;;;0.51;99.74609;93574.28;;;;
2020/12/07 05:32:49;;;;;;;9.65;6.5;;;;;;;0.51;99.74609;93574.28;;;;
2020/12/07 05:33:50;;;;;;;9.65;6.5;;;;;;;0.51;99.74609;93574.28;;;;
2020/12/07 05:34:50;;;;;;;9.65;6.5;;;;;;;0.51;99.74609;93574.28;;;;
2020/12/07 05:35:52;;;;;;;7.299999;5.45;;;;;;;0.77;99.33887;93585.61;;;;
2020/12/07 05:36:56;;;;;;;7.299999;5.45;;;;;;;0.77;99.33887;93585.61;;;;
2020/12/07 05:37:57;;;;;;;7.299999;5.45;;;;;;;0.77;99.33887;93585.61;;;;
2020/12/07 05:39:03;;;;;;;7.299999;5.45;;;;;;;0.77;99.33887;93585.61;;;;
2020/12/07 05:40:05;;;;;;;7.299999;5.45;;;;;;;0.77;99.33887;93585.61;;;;
2020/12/07 05:41:07;;;;;;;7.299999;5.45;;;;;;;0.77;99.33887;93585.61;;;;
2020/12/07 05:42:09;;;;;;;7.299999;5.45;;;;;;;0.77;99.33887;93585.61;;;;
2020/12/07 05:43:12;;;;;;;7.299999;5.45;;;;;;;0.77;99.33887;93585.61;;;;
2020/12/07 05:44:13;;;;;;;7.299999;5.45;;;;;;;0.77;99.33887;93585.61;;;;
2020/12/07 05:45:15;;;;;;;7.299999;5.45;;;;;;;0.77;99.33887;93585.61;;;;
2020/12/07 05:46:16;;;;;;;7.399999;5;;;;;;;0.9;99.07031;93595.59;;;;
2020/12/07 05:47:17;;;;;;;7.399999;5;;;;;;;0.9;99.07031;93595.59;;;;
2020/12/07 05:48:20;;;;;;;7.399999;5;;;;;;;0.9;99.07031;93595.59;;;;
2020/12/07 05:49:21;;;;;;;7.399999;5;;;;;;;0.9;99.07031;93595.59;;;;
2020/12/07 05:50:23;;;;;;;7.399999;5;;;;;;;0.9;99.07031;93595.59;;;;
2020/12/07 05:51:26;;;;;;;7.399999;5;;;;;;;0.9;99.07031;93595.59;;;;
2020/12/07 05:52:27;;;;;;;7.399999;5;;;;;;;0.9;99.07031;93595.59;;;;
2020/12/07 05:54:00;;;;;;;7.399999;5;;;;;;;0.9;99.07031;93595.59;;;;
2020/12/07 05:55:02;;;;;;;7.399999;5;;;;;;;0.9;99.07031;93595.59;;;;
2020/12/07 05:56:04;;;;;;;7.399999;5;;;;;;;0.9;99.07031;93595.59;;;;